VIA003 SVMI-TFFF
Flight info
| Callsign | VIA003 |
|---|---|
| Flight time | 1h 2m |
| Altitude | 37000 |
| Route | DARPA2 DARPA DCT KOMPU/N0445F230 A551 OPLUD/N0484F370 UA551 ONGAL/N0445F230 A551 SOMON SOMON2X |
| Aircraft | MD11/H-SDE1E2E3FGHIJ2J3J4J5M1RWXYZ/LB1D1 |
Departure
| Time | 2026-04-27 14:30 |
|---|---|
| Airport | Maiquetía Simón Bolívar International Airport (SVMI) |
Arrival
| Time | 2026-04-27 15:32 |
|---|---|
| Airport | Martinique Aimé Césaire International Airport (TFFF) |
| Time | Latitude | Longitude | Altitude | Speed | Heading |
|---|---|---|---|---|---|
| 2026-04-27 14:07 | 10.60108 | -67.00614 | 309 ft | 0 kts | 358° |
| 2026-04-27 14:12 | 10.60097 | -67.00614 | 314 ft | 2 kts | 358° |
| 2026-04-27 14:12 | 10.60082 | -67.00613 | 314 ft | 2 kts | 358° |
| 2026-04-27 14:13 | 10.60067 | -67.00613 | 314 ft | 2 kts | 358° |
| 2026-04-27 14:13 | 10.60052 | -67.00612 | 314 ft | 2 kts | 358° |
| 2026-04-27 14:13 | 10.60037 | -67.00612 | 314 ft | 2 kts | 358° |
| 2026-04-27 14:13 | 10.60022 | -67.00611 | 314 ft | 2 kts | 358° |
| 2026-04-27 14:14 | 10.60007 | -67.00612 | 314 ft | 2 kts | 26° |
| 2026-04-27 14:14 | 10.59996 | -67.00622 | 313 ft | 2 kts | 58° |
| 2026-04-27 14:14 | 10.59991 | -67.00634 | 313 ft | 0 kts | 86° |
| 2026-04-27 14:14 | 10.59991 | -67.00639 | 313 ft | 0 kts | 88° |
| 2026-04-27 14:17 | 10.59992 | -67.00610 | 312 ft | 7 kts | 88° |
| 2026-04-27 14:18 | 10.59994 | -67.00541 | 314 ft | 11 kts | 88° |
| 2026-04-27 14:18 | 10.59997 | -67.00456 | 315 ft | 12 kts | 88° |
| 2026-04-27 14:18 | 10.60001 | -67.00358 | 315 ft | 14 kts | 84° |
| 2026-04-27 14:18 | 10.60077 | -67.00297 | 313 ft | 16 kts | 27° |
| 2026-04-27 14:19 | 10.60113 | -67.00185 | 312 ft | 18 kts | 88° |
| 2026-04-27 14:19 | 10.60118 | -67.00040 | 310 ft | 21 kts | 88° |
| 2026-04-27 14:19 | 10.60132 | -66.99872 | 305 ft | 25 kts | 85° |
| 2026-04-27 14:19 | 10.60136 | -66.99726 | 299 ft | 13 kts | 88° |
| 2026-04-27 14:20 | 10.60155 | -66.99679 | 297 ft | 3 kts | 13° |
| 2026-04-27 14:20 | 10.60159 | -66.99678 | 297 ft | 0 kts | 7° |
| 2026-04-27 14:21 | 10.60160 | -66.99678 | 297 ft | 0 kts | 7° |
| 2026-04-27 14:21 | 10.60178 | -66.99676 | 296 ft | 5 kts | 7° |
| 2026-04-27 14:21 | 10.60230 | -66.99673 | 294 ft | 9 kts | 8° |
| 2026-04-27 14:22 | 10.60262 | -66.99607 | 291 ft | 14 kts | 88° |
| 2026-04-27 14:22 | 10.60268 | -66.99486 | 284 ft | 20 kts | 87° |
| 2026-04-27 14:22 | 10.60274 | -66.99323 | 275 ft | 25 kts | 89° |
| 2026-04-27 14:22 | 10.60278 | -66.99121 | 265 ft | 27 kts | 88° |
| 2026-04-27 14:23 | 10.60283 | -66.98958 | 255 ft | 13 kts | 89° |
| 2026-04-27 14:23 | 10.60304 | -66.98862 | 248 ft | 11 kts | 83° |
| 2026-04-27 14:23 | 10.60289 | -66.98834 | 247 ft | 2 kts | 198° |
| 2026-04-27 14:23 | 10.60285 | -66.98841 | 248 ft | 0 kts | 262° |
| 2026-04-27 14:24 | 10.60285 | -66.98843 | 248 ft | 0 kts | 270° |
| 2026-04-27 14:29 | 10.60276 | -66.99178 | 265 ft | 88 kts | 269° |
| 2026-04-27 14:29 | 10.60251 | -67.00066 | 303 ft | 159 kts | 269° |
| 2026-04-27 14:29 | 10.60217 | -67.01291 | 755 ft | 176 kts | 269° |
| 2026-04-27 14:30 | 10.60320 | -67.02516 | 1360 ft | 185 kts | 293° |
| 2026-04-27 14:30 | 10.61146 | -67.03546 | 1879 ft | 199 kts | 333° |
| 2026-04-27 14:30 | 10.62513 | -67.03903 | 2293 ft | 213 kts | 7° |
| 2026-04-27 14:30 | 10.63932 | -67.03381 | 2628 ft | 231 kts | 41° |
| 2026-04-27 14:31 | 10.65059 | -67.02155 | 3323 ft | 244 kts | 55° |
| 2026-04-27 14:31 | 10.66116 | -67.00752 | 4158 ft | 256 kts | 53° |
| 2026-04-27 14:31 | 10.67309 | -66.99381 | 5063 ft | 265 kts | 48° |
| 2026-04-27 14:31 | 10.68667 | -66.98082 | 5995 ft | 272 kts | 44° |
| 2026-04-27 14:32 | 10.70132 | -66.96855 | 6912 ft | 278 kts | 40° |
| 2026-04-27 14:32 | 10.71882 | -66.95950 | 7920 ft | 288 kts | 21° |
| 2026-04-27 14:32 | 10.73852 | -66.95428 | 8927 ft | 296 kts | 15° |
| 2026-04-27 14:32 | 10.75886 | -66.95038 | 9896 ft | 304 kts | 14° |
| 2026-04-27 14:33 | 10.77989 | -66.94653 | 10875 ft | 309 kts | 14° |
| 2026-04-27 14:33 | 10.80091 | -66.94235 | 11836 ft | 314 kts | 15° |
| 2026-04-27 14:33 | 10.82235 | -66.93761 | 12776 ft | 319 kts | 16° |
| 2026-04-27 14:33 | 10.84427 | -66.93249 | 13679 ft | 324 kts | 16° |
| 2026-04-27 14:34 | 10.86578 | -66.92548 | 14559 ft | 326 kts | 27° |
| 2026-04-27 14:34 | 10.88564 | -66.91420 | 15345 ft | 330 kts | 40° |
| 2026-04-27 14:34 | 10.90199 | -66.89707 | 15622 ft | 350 kts | 60° |
| 2026-04-27 14:34 | 10.91354 | -66.87434 | 15853 ft | 374 kts | 70° |
| 2026-04-27 14:35 | 10.92326 | -66.84895 | 15968 ft | 403 kts | 71° |
| 2026-04-27 14:35 | 10.93392 | -66.82111 | 16123 ft | 432 kts | 70° |
| 2026-04-27 14:35 | 10.94579 | -66.79265 | 16763 ft | 446 kts | 68° |
| 2026-04-27 14:35 | 10.95851 | -66.76386 | 17477 ft | 456 kts | 67° |
| 2026-04-27 14:36 | 10.97194 | -66.73418 | 18274 ft | 464 kts | 66° |
| 2026-04-27 14:36 | 10.98568 | -66.70401 | 19082 ft | 471 kts | 66° |
| 2026-04-27 14:36 | 10.99933 | -66.67369 | 19886 ft | 477 kts | 66° |
| 2026-04-27 14:36 | 11.01306 | -66.64296 | 20664 ft | 483 kts | 66° |
| 2026-04-27 14:37 | 11.02717 | -66.61153 | 21409 ft | 489 kts | 66° |
| 2026-04-27 14:37 | 11.04141 | -66.57993 | 22135 ft | 495 kts | 66° |
| 2026-04-27 14:37 | 11.05565 | -66.54839 | 22895 ft | 500 kts | 66° |
| 2026-04-27 14:37 | 11.07018 | -66.51610 | 23709 ft | 503 kts | 66° |
| 2026-04-27 14:38 | 11.08490 | -66.48332 | 24496 ft | 507 kts | 66° |
| 2026-04-27 14:38 | 11.09958 | -66.45065 | 25249 ft | 511 kts | 66° |
| 2026-04-27 14:38 | 11.11445 | -66.41773 | 25992 ft | 514 kts | 66° |
| 2026-04-27 14:38 | 11.12935 | -66.38462 | 26723 ft | 518 kts | 66° |
| 2026-04-27 14:39 | 11.14419 | -66.35168 | 27617 ft | 517 kts | 66° |
| 2026-04-27 14:39 | 11.15930 | -66.31815 | 28606 ft | 514 kts | 66° |
| 2026-04-27 14:39 | 11.17417 | -66.28522 | 29611 ft | 512 kts | 67° |
| 2026-04-27 14:39 | 11.18879 | -66.25284 | 30542 ft | 509 kts | 67° |
| 2026-04-27 14:40 | 11.20363 | -66.21982 | 31459 ft | 507 kts | 67° |
| 2026-04-27 14:40 | 11.21823 | -66.18744 | 32345 ft | 505 kts | 67° |
| 2026-04-27 14:40 | 11.23298 | -66.15485 | 33230 ft | 503 kts | 66° |
| 2026-04-27 14:40 | 11.24777 | -66.12210 | 34082 ft | 501 kts | 66° |
| 2026-04-27 14:41 | 11.26234 | -66.08957 | 34834 ft | 499 kts | 66° |
| 2026-04-27 14:41 | 11.27657 | -66.05758 | 35482 ft | 499 kts | 66° |
| 2026-04-27 14:41 | 11.29094 | -66.02543 | 36130 ft | 498 kts | 66° |
| 2026-04-27 14:41 | 11.30542 | -65.99332 | 36706 ft | 497 kts | 66° |
| 2026-04-27 14:42 | 11.31969 | -65.96156 | 36990 ft | 496 kts | 66° |
| 2026-04-27 14:42 | 11.34801 | -65.89807 | 36958 ft | 491 kts | 65° |
| 2026-04-27 14:43 | 11.37831 | -65.83541 | 36984 ft | 494 kts | 60° |
| 2026-04-27 14:43 | 11.41580 | -65.77685 | 36997 ft | 496 kts | 54° |
| 2026-04-27 14:44 | 11.45616 | -65.71967 | 36999 ft | 497 kts | 54° |
| 2026-04-27 14:44 | 11.49611 | -65.66218 | 37002 ft | 496 kts | 54° |
| 2026-04-27 14:45 | 11.53598 | -65.60435 | 37002 ft | 496 kts | 55° |
| 2026-04-27 14:45 | 11.57556 | -65.54700 | 37010 ft | 497 kts | 54° |
| 2026-04-27 14:46 | 11.61554 | -65.48920 | 37009 ft | 497 kts | 54° |
| 2026-04-27 14:46 | 11.65533 | -65.43173 | 37011 ft | 497 kts | 54° |
| 2026-04-27 14:47 | 11.69520 | -65.37417 | 37013 ft | 496 kts | 54° |
| 2026-04-27 14:47 | 11.73490 | -65.31644 | 37007 ft | 496 kts | 55° |
| 2026-04-27 14:48 | 11.77435 | -65.25906 | 37008 ft | 496 kts | 55° |
| 2026-04-27 14:48 | 11.83417 | -65.17226 | 37009 ft | 497 kts | 55° |
| 2026-04-27 14:49 | 11.87390 | -65.11458 | 37008 ft | 497 kts | 55° |
| 2026-04-27 14:49 | 11.91364 | -65.05692 | 37005 ft | 497 kts | 55° |
| 2026-04-27 14:50 | 11.95345 | -64.99919 | 37013 ft | 498 kts | 55° |
| 2026-04-27 14:50 | 11.99338 | -64.94132 | 37011 ft | 498 kts | 55° |
| 2026-04-27 14:51 | 12.03329 | -64.88347 | 37014 ft | 498 kts | 55° |
| 2026-04-27 14:51 | 12.07310 | -64.82580 | 37012 ft | 498 kts | 55° |
| 2026-04-27 14:52 | 12.11315 | -64.76775 | 37012 ft | 497 kts | 55° |
| 2026-04-27 14:52 | 12.15291 | -64.71023 | 37012 ft | 498 kts | 55° |
| 2026-04-27 14:53 | 12.19284 | -64.65208 | 37013 ft | 498 kts | 55° |
| 2026-04-27 14:53 | 12.23255 | -64.59397 | 37010 ft | 498 kts | 55° |
| 2026-04-27 14:54 | 12.27250 | -64.53587 | 37015 ft | 500 kts | 55° |
| 2026-04-27 14:54 | 12.31215 | -64.47793 | 37016 ft | 500 kts | 55° |
| 2026-04-27 14:55 | 12.35218 | -64.41976 | 37021 ft | 499 kts | 55° |
| 2026-04-27 14:55 | 12.39169 | -64.36141 | 37017 ft | 499 kts | 56° |
| 2026-04-27 14:56 | 12.43099 | -64.30257 | 37014 ft | 499 kts | 56° |
| 2026-04-27 14:56 | 12.47016 | -64.24442 | 37018 ft | 498 kts | 56° |
| 2026-04-27 14:57 | 12.50938 | -64.18600 | 37016 ft | 499 kts | 56° |
| 2026-04-27 14:57 | 12.54882 | -64.12744 | 37014 ft | 499 kts | 56° |
| 2026-04-27 14:58 | 12.58825 | -64.06879 | 37013 ft | 500 kts | 56° |
| 2026-04-27 14:58 | 12.62763 | -64.01037 | 37013 ft | 500 kts | 56° |
| 2026-04-27 14:59 | 12.66703 | -63.95181 | 37008 ft | 500 kts | 56° |
| 2026-04-27 14:59 | 12.70669 | -63.89296 | 37009 ft | 499 kts | 56° |
| 2026-04-27 15:00 | 12.74606 | -63.83449 | 37000 ft | 499 kts | 56° |
| 2026-04-27 15:00 | 12.78539 | -63.77621 | 37005 ft | 500 kts | 56° |
| 2026-04-27 15:01 | 12.82499 | -63.71713 | 37001 ft | 500 kts | 56° |
| 2026-04-27 15:01 | 12.86409 | -63.65852 | 37007 ft | 501 kts | 56° |
| 2026-04-27 15:02 | 12.90350 | -63.59914 | 37007 ft | 501 kts | 56° |
| 2026-04-27 15:02 | 12.94257 | -63.53995 | 37008 ft | 501 kts | 56° |
| 2026-04-27 15:03 | 12.98170 | -63.48097 | 37008 ft | 500 kts | 56° |
| 2026-04-27 15:03 | 13.02072 | -63.42199 | 37014 ft | 501 kts | 56° |
| 2026-04-27 15:04 | 13.06008 | -63.36267 | 37022 ft | 502 kts | 56° |
| 2026-04-27 15:04 | 13.09941 | -63.30330 | 37027 ft | 503 kts | 56° |
| 2026-04-27 15:05 | 13.13868 | -63.24414 | 37034 ft | 503 kts | 56° |
| 2026-04-27 15:05 | 13.17829 | -63.18441 | 37034 ft | 503 kts | 56° |
| 2026-04-27 15:06 | 13.21757 | -63.12525 | 37037 ft | 503 kts | 56° |
| 2026-04-27 15:06 | 13.25686 | -63.06605 | 37036 ft | 503 kts | 56° |
| 2026-04-27 15:07 | 13.29612 | -63.00641 | 37007 ft | 505 kts | 56° |
| 2026-04-27 15:07 | 13.31573 | -62.97647 | 36187 ft | 512 kts | 56° |
| 2026-04-27 15:07 | 13.33572 | -62.94602 | 35189 ft | 515 kts | 56° |
| 2026-04-27 15:08 | 13.35570 | -62.91564 | 34213 ft | 517 kts | 56° |
| 2026-04-27 15:08 | 13.37600 | -62.88477 | 33170 ft | 520 kts | 56° |
| 2026-04-27 15:08 | 13.39609 | -62.85424 | 32200 ft | 522 kts | 57° |
| 2026-04-27 15:08 | 13.41658 | -62.82306 | 31258 ft | 524 kts | 57° |
| 2026-04-27 15:09 | 13.43692 | -62.79215 | 30364 ft | 524 kts | 57° |
| 2026-04-27 15:09 | 13.45711 | -62.76147 | 29519 ft | 524 kts | 57° |
| 2026-04-27 15:09 | 13.47759 | -62.73030 | 28703 ft | 522 kts | 57° |
| 2026-04-27 15:09 | 13.49782 | -62.69957 | 27922 ft | 520 kts | 57° |
| 2026-04-27 15:10 | 13.51803 | -62.66888 | 27186 ft | 517 kts | 57° |
| 2026-04-27 15:10 | 13.53831 | -62.63813 | 26437 ft | 520 kts | 57° |
| 2026-04-27 15:10 | 13.55863 | -62.60725 | 25703 ft | 521 kts | 57° |
| 2026-04-27 15:10 | 13.57889 | -62.57645 | 24965 ft | 524 kts | 57° |
| 2026-04-27 15:11 | 13.59925 | -62.54559 | 24148 ft | 521 kts | 57° |
| 2026-04-27 15:11 | 13.61939 | -62.51512 | 23368 ft | 517 kts | 58° |
| 2026-04-27 15:11 | 13.63939 | -62.48471 | 22620 ft | 512 kts | 58° |
| 2026-04-27 15:11 | 13.65929 | -62.45447 | 21909 ft | 506 kts | 58° |
| 2026-04-27 15:12 | 13.67890 | -62.42470 | 21226 ft | 500 kts | 58° |
| 2026-04-27 15:12 | 13.69814 | -62.39552 | 20553 ft | 495 kts | 58° |
| 2026-04-27 15:12 | 13.71733 | -62.36647 | 19885 ft | 489 kts | 58° |
| 2026-04-27 15:12 | 13.73633 | -62.33754 | 19222 ft | 482 kts | 58° |
| 2026-04-27 15:13 | 13.75463 | -62.30937 | 18580 ft | 476 kts | 58° |
| 2026-04-27 15:13 | 13.77309 | -62.28093 | 17922 ft | 470 kts | 58° |
| 2026-04-27 15:13 | 13.79100 | -62.25342 | 17288 ft | 464 kts | 58° |
| 2026-04-27 15:13 | 13.80907 | -62.22577 | 16647 ft | 458 kts | 57° |
| 2026-04-27 15:14 | 13.82672 | -62.19869 | 16033 ft | 452 kts | 58° |
| 2026-04-27 15:14 | 13.84412 | -62.17200 | 15484 ft | 445 kts | 58° |
| 2026-04-27 15:14 | 13.86122 | -62.14578 | 14998 ft | 438 kts | 58° |
| 2026-04-27 15:14 | 13.87827 | -62.11963 | 14833 ft | 435 kts | 57° |
| 2026-04-27 15:15 | 13.89520 | -62.09370 | 14755 ft | 436 kts | 58° |
| 2026-04-27 15:15 | 13.91215 | -62.06775 | 14675 ft | 436 kts | 58° |
| 2026-04-27 15:15 | 13.92895 | -62.04195 | 14589 ft | 436 kts | 57° |
| 2026-04-27 15:15 | 13.94577 | -62.01622 | 14500 ft | 436 kts | 57° |
| 2026-04-27 15:16 | 13.96268 | -61.99030 | 14406 ft | 435 kts | 57° |
| 2026-04-27 15:16 | 13.97965 | -61.96431 | 14323 ft | 434 kts | 57° |
| 2026-04-27 15:16 | 13.99633 | -61.93875 | 14241 ft | 433 kts | 57° |
| 2026-04-27 15:16 | 14.01318 | -61.91291 | 14152 ft | 433 kts | 57° |
| 2026-04-27 15:17 | 14.03004 | -61.88707 | 14075 ft | 432 kts | 57° |
| 2026-04-27 15:17 | 14.04675 | -61.86153 | 13986 ft | 432 kts | 57° |
| 2026-04-27 15:17 | 14.06377 | -61.83550 | 13901 ft | 431 kts | 57° |
| 2026-04-27 15:17 | 14.08042 | -61.80996 | 13804 ft | 431 kts | 57° |
| 2026-04-27 15:18 | 14.09722 | -61.78426 | 13645 ft | 431 kts | 57° |
| 2026-04-27 15:18 | 14.11404 | -61.75861 | 13421 ft | 431 kts | 57° |
| 2026-04-27 15:18 | 14.13092 | -61.73280 | 13126 ft | 429 kts | 57° |
| 2026-04-27 15:18 | 14.14826 | -61.70770 | 12763 ft | 426 kts | 54° |
| 2026-04-27 15:19 | 14.16708 | -61.68404 | 12258 ft | 423 kts | 50° |
| 2026-04-27 15:19 | 14.18697 | -61.66199 | 11643 ft | 419 kts | 47° |
| 2026-04-27 15:19 | 14.20733 | -61.64060 | 11248 ft | 409 kts | 46° |
| 2026-04-27 15:19 | 14.22687 | -61.62006 | 11086 ft | 393 kts | 47° |
| 2026-04-27 15:20 | 14.24540 | -61.60036 | 11061 ft | 376 kts | 47° |
| 2026-04-27 15:20 | 14.26314 | -61.58139 | 11055 ft | 358 kts | 47° |
| 2026-04-27 15:20 | 14.27999 | -61.56328 | 11050 ft | 342 kts | 47° |
| 2026-04-27 15:20 | 14.29618 | -61.54583 | 10932 ft | 332 kts | 48° |
| 2026-04-27 15:21 | 14.31203 | -61.52874 | 10240 ft | 320 kts | 48° |
| 2026-04-27 15:21 | 14.32696 | -61.51269 | 9940 ft | 303 kts | 48° |
| 2026-04-27 15:21 | 14.34127 | -61.49729 | 9865 ft | 290 kts | 48° |
| 2026-04-27 15:21 | 14.35508 | -61.48242 | 9674 ft | 283 kts | 48° |
| 2026-04-27 15:22 | 14.36857 | -61.46789 | 8560 ft | 285 kts | 48° |
| 2026-04-27 15:22 | 14.38209 | -61.45335 | 7523 ft | 279 kts | 48° |
| 2026-04-27 15:22 | 14.39520 | -61.43928 | 6788 ft | 265 kts | 48° |
| 2026-04-27 15:22 | 14.40761 | -61.42600 | 6153 ft | 251 kts | 48° |
| 2026-04-27 15:23 | 14.41928 | -61.41352 | 5606 ft | 236 kts | 49° |
| 2026-04-27 15:23 | 14.43028 | -61.40176 | 5289 ft | 216 kts | 49° |
| 2026-04-27 15:23 | 14.44034 | -61.39101 | 4937 ft | 205 kts | 49° |
| 2026-04-27 15:23 | 14.44967 | -61.38037 | 4489 ft | 197 kts | 59° |
| 2026-04-27 15:24 | 14.45405 | -61.36753 | 4072 ft | 185 kts | 77° |
| 2026-04-27 15:24 | 14.45786 | -61.35511 | 3716 ft | 176 kts | 72° |
| 2026-04-27 15:24 | 14.46251 | -61.34381 | 3430 ft | 166 kts | 67° |
| 2026-04-27 15:24 | 14.46778 | -61.33329 | 2975 ft | 170 kts | 64° |
| 2026-04-27 15:25 | 14.47527 | -61.32359 | 2432 ft | 178 kts | 44° |
| 2026-04-27 15:25 | 14.48566 | -61.31649 | 2054 ft | 181 kts | 34° |
| 2026-04-27 15:25 | 14.49719 | -61.31083 | 2115 ft | 186 kts | 29° |
| 2026-04-27 15:25 | 14.50925 | -61.30577 | 2089 ft | 186 kts | 27° |
| 2026-04-27 15:26 | 14.52121 | -61.30041 | 2084 ft | 184 kts | 34° |
| 2026-04-27 15:26 | 14.53198 | -61.29346 | 2065 ft | 181 kts | 44° |
| 2026-04-27 15:26 | 14.53976 | -61.28364 | 2095 ft | 175 kts | 65° |
| 2026-04-27 15:26 | 14.54438 | -61.27222 | 2073 ft | 173 kts | 76° |
| 2026-04-27 15:27 | 14.54727 | -61.26011 | 2066 ft | 173 kts | 81° |
| 2026-04-27 15:27 | 14.54936 | -61.24784 | 2054 ft | 173 kts | 82° |
| 2026-04-27 15:27 | 14.55123 | -61.23550 | 2050 ft | 173 kts | 83° |
| 2026-04-27 15:27 | 14.55318 | -61.22309 | 2044 ft | 173 kts | 82° |
| 2026-04-27 15:28 | 14.55524 | -61.21079 | 2041 ft | 174 kts | 82° |
| 2026-04-27 15:28 | 14.55737 | -61.19865 | 2040 ft | 174 kts | 82° |
| 2026-04-27 15:28 | 14.55957 | -61.18634 | 2040 ft | 174 kts | 82° |
| 2026-04-27 15:28 | 14.56175 | -61.17402 | 2037 ft | 173 kts | 82° |
| 2026-04-27 15:29 | 14.56390 | -61.16171 | 2037 ft | 173 kts | 82° |
| 2026-04-27 15:29 | 14.56598 | -61.14964 | 2037 ft | 172 kts | 82° |
| 2026-04-27 15:29 | 14.56810 | -61.13731 | 2033 ft | 172 kts | 82° |
| 2026-04-27 15:29 | 14.57019 | -61.12515 | 1997 ft | 172 kts | 82° |
| 2026-04-27 15:30 | 14.57228 | -61.11297 | 1773 ft | 172 kts | 82° |
| 2026-04-27 15:30 | 14.57435 | -61.10085 | 1533 ft | 171 kts | 82° |
| 2026-04-27 15:30 | 14.57641 | -61.08883 | 1344 ft | 171 kts | 82° |
| 2026-04-27 15:30 | 14.57849 | -61.07678 | 1116 ft | 167 kts | 82° |
| 2026-04-27 15:31 | 14.58046 | -61.06544 | 901 ft | 151 kts | 82° |
| 2026-04-27 15:31 | 14.58221 | -61.05536 | 720 ft | 138 kts | 82° |
| 2026-04-27 15:31 | 14.58402 | -61.04542 | 601 ft | 142 kts | 82° |
| 2026-04-27 15:31 | 14.58572 | -61.03549 | 310 ft | 141 kts | 83° |
| 2026-04-27 15:32 | 14.58725 | -61.02541 | 159 ft | 141 kts | 82° |
| 2026-04-27 15:32 | 14.58899 | -61.01555 | 44 ft | 140 kts | 82° |
| 2026-04-27 15:32 | 14.59051 | -61.00645 | 38 ft | 94 kts | 82° |
| 2026-04-27 15:32 | 14.59114 | -61.00268 | 38 ft | 34 kts | 81° |
| 2026-04-27 15:33 | 14.59151 | -61.00063 | 39 ft | 20 kts | 67° |
| 2026-04-27 15:33 | 14.59269 | -61.00029 | 39 ft | 15 kts | 350° |
| 2026-04-27 15:33 | 14.59322 | -61.00038 | 39 ft | 6 kts | 351° |
| 2026-04-27 15:33 | 14.59366 | -61.00061 | 39 ft | 5 kts | 332° |
| 2026-04-27 15:34 | 14.59405 | -61.00056 | 39 ft | 6 kts | 20° |
| 2026-04-27 15:34 | 14.59436 | -61.00044 | 39 ft | 2 kts | 21° |
| 2026-04-27 15:34 | 14.59447 | -61.00039 | 39 ft | 0 kts | 22° |
| 2026-04-27 15:34 | 14.59450 | -61.00038 | 39 ft | 0 kts | 22° |